AFR026 KLAX-NTAA
Flight info
| Callsign | AFR026 |
|---|---|
| Flight time | N/A |
| Altitude | 38000 |
| Route | ZILLI5 FICKY DCT HILCO G575 CINTO/N0484F400 G575 ORARE DCT ASOKI ASOKI4T |
| Aircraft | A359/H-SDE2E3GHIJ3J4J5LM1ORWXY/LB1D1 |
Departure
| Time | 2026-04-23 06:44 |
|---|---|
| Airport | Los Angeles International Airport (KLAX) |
Arrival
| Time | N/A |
|---|---|
| Airport | Fa'a'ā International Airport (NTAA) |
| Time | Latitude | Longitude | Altitude | Speed | Heading |
|---|---|---|---|---|---|
| 2026-04-23 06:08 | 33.94279 | -118.41563 | 99 ft | 0 kts | 83° |
| 2026-04-23 06:29 | 33.94278 | -118.41569 | 99 ft | 4 kts | 83° |
| 2026-04-23 06:30 | 33.94275 | -118.41602 | 98 ft | 4 kts | 83° |
| 2026-04-23 06:30 | 33.94273 | -118.41629 | 97 ft | 4 kts | 81° |
| 2026-04-23 06:30 | 33.94263 | -118.41653 | 100 ft | 4 kts | 24° |
| 2026-04-23 06:30 | 33.94238 | -118.41659 | 97 ft | 3 kts | 354° |
| 2026-04-23 06:31 | 33.94233 | -118.41658 | 98 ft | 0 kts | 353° |
| 2026-04-23 06:37 | 33.94234 | -118.41658 | 97 ft | 0 kts | 353° |
| 2026-04-23 06:37 | 33.94254 | -118.41661 | 99 ft | 6 kts | 353° |
| 2026-04-23 06:37 | 33.94293 | -118.41667 | 101 ft | 10 kts | 353° |
| 2026-04-23 06:37 | 33.94417 | -118.41685 | 101 ft | 15 kts | 353° |
| 2026-04-23 06:38 | 33.94487 | -118.41696 | 102 ft | 16 kts | 353° |
| 2026-04-23 06:38 | 33.94594 | -118.41712 | 100 ft | 14 kts | 352° |
| 2026-04-23 06:38 | 33.94650 | -118.41654 | 101 ft | 12 kts | 74° |
| 2026-04-23 06:38 | 33.94691 | -118.41576 | 103 ft | 12 kts | 18° |
| 2026-04-23 06:39 | 33.94751 | -118.41511 | 102 ft | 14 kts | 75° |
| 2026-04-23 06:39 | 33.94780 | -118.41383 | 102 ft | 18 kts | 73° |
| 2026-04-23 06:39 | 33.94800 | -118.41217 | 103 ft | 22 kts | 83° |
| 2026-04-23 06:39 | 33.94819 | -118.41024 | 105 ft | 23 kts | 83° |
| 2026-04-23 06:40 | 33.94838 | -118.40826 | 102 ft | 24 kts | 83° |
| 2026-04-23 06:40 | 33.94861 | -118.40624 | 101 ft | 25 kts | 83° |
| 2026-04-23 06:40 | 33.94882 | -118.40419 | 101 ft | 25 kts | 83° |
| 2026-04-23 06:40 | 33.94902 | -118.40220 | 103 ft | 23 kts | 84° |
| 2026-04-23 06:41 | 33.94919 | -118.40092 | 103 ft | 12 kts | 67° |
| 2026-04-23 06:41 | 33.94940 | -118.40063 | 103 ft | 0 kts | 35° |
| 2026-04-23 06:41 | 33.94943 | -118.40062 | 103 ft | 1 kts | 29° |
| 2026-04-23 06:42 | 33.94963 | -118.40064 | 103 ft | 5 kts | 350° |
| 2026-04-23 06:42 | 33.95012 | -118.40079 | 104 ft | 6 kts | 330° |
| 2026-04-23 06:42 | 33.95020 | -118.40109 | 103 ft | 3 kts | 281° |
| 2026-04-23 06:42 | 33.95021 | -118.40118 | 104 ft | 0 kts | 279° |
| 2026-04-23 06:43 | 33.95021 | -118.40136 | 104 ft | 7 kts | 270° |
| 2026-04-23 06:43 | 33.95012 | -118.40240 | 104 ft | 22 kts | 263° |
| 2026-04-23 06:43 | 33.94969 | -118.40657 | 104 ft | 83 kts | 263° |
| 2026-04-23 06:43 | 33.94874 | -118.41593 | 104 ft | 141 kts | 263° |
| 2026-04-23 06:44 | 33.94743 | -118.42948 | 310 ft | 173 kts | 263° |
| 2026-04-23 06:44 | 33.94608 | -118.44350 | 1083 ft | 163 kts | 264° |
| 2026-04-23 06:44 | 33.94479 | -118.45739 | 1640 ft | 173 kts | 265° |
| 2026-04-23 06:44 | 33.94356 | -118.47215 | 2055 ft | 181 kts | 266° |
| 2026-04-23 06:45 | 33.94264 | -118.48769 | 2446 ft | 190 kts | 269° |
| 2026-04-23 06:45 | 33.94217 | -118.50384 | 2883 ft | 197 kts | 271° |
| 2026-04-23 06:45 | 33.94172 | -118.52074 | 3225 ft | 209 kts | 268° |
| 2026-04-23 06:45 | 33.94035 | -118.53886 | 3532 ft | 225 kts | 265° |
| 2026-04-23 06:46 | 33.93867 | -118.55837 | 3762 ft | 244 kts | 265° |
| 2026-04-23 06:46 | 33.93692 | -118.57931 | 4155 ft | 256 kts | 265° |
| 2026-04-23 06:46 | 33.93506 | -118.60082 | 4762 ft | 260 kts | 263° |
| 2026-04-23 06:46 | 33.92986 | -118.62172 | 5395 ft | 264 kts | 243° |
| 2026-04-23 06:47 | 33.91772 | -118.63827 | 6095 ft | 269 kts | 217° |
| 2026-04-23 06:47 | 33.90024 | -118.64663 | 6779 ft | 276 kts | 192° |
| 2026-04-23 06:47 | 33.88092 | -118.64880 | 7434 ft | 281 kts | 187° |
| 2026-04-23 06:47 | 33.86121 | -118.64998 | 8079 ft | 285 kts | 187° |
| 2026-04-23 06:48 | 33.84131 | -118.65122 | 8671 ft | 288 kts | 188° |
| 2026-04-23 06:48 | 33.82119 | -118.65259 | 9156 ft | 291 kts | 188° |
| 2026-04-23 06:48 | 33.80086 | -118.65406 | 9677 ft | 294 kts | 189° |
| 2026-04-23 06:48 | 33.78037 | -118.65558 | 10142 ft | 298 kts | 189° |
| 2026-04-23 06:49 | 33.75925 | -118.65721 | 10373 ft | 310 kts | 189° |
| 2026-04-23 06:49 | 33.73729 | -118.65903 | 10583 ft | 322 kts | 191° |
| 2026-04-23 06:49 | 33.71472 | -118.66226 | 10794 ft | 332 kts | 193° |
| 2026-04-23 06:49 | 33.69143 | -118.66612 | 11003 ft | 343 kts | 193° |
| 2026-04-23 06:50 | 33.66740 | -118.67009 | 11205 ft | 354 kts | 193° |
| 2026-04-23 06:50 | 33.64268 | -118.67408 | 11415 ft | 364 kts | 193° |
| 2026-04-23 06:50 | 33.61733 | -118.67809 | 11709 ft | 370 kts | 192° |
| 2026-04-23 06:50 | 33.59168 | -118.68210 | 12096 ft | 373 kts | 192° |
| 2026-04-23 06:51 | 33.56587 | -118.68611 | 12520 ft | 375 kts | 193° |
| 2026-04-23 06:51 | 33.53996 | -118.69014 | 12933 ft | 377 kts | 193° |
| 2026-04-23 06:51 | 33.51387 | -118.69420 | 13357 ft | 379 kts | 193° |
| 2026-04-23 06:51 | 33.48768 | -118.69827 | 13779 ft | 380 kts | 193° |
| 2026-04-23 06:52 | 33.46143 | -118.70244 | 14156 ft | 381 kts | 194° |
| 2026-04-23 06:52 | 33.43606 | -118.71044 | 14503 ft | 374 kts | 208° |
| 2026-04-23 06:52 | 33.41437 | -118.72668 | 14874 ft | 365 kts | 225° |
| 2026-04-23 06:52 | 33.39638 | -118.74739 | 15236 ft | 364 kts | 230° |
| 2026-04-23 06:53 | 33.37847 | -118.76953 | 15611 ft | 366 kts | 230° |
| 2026-04-23 06:53 | 33.36096 | -118.79118 | 15972 ft | 368 kts | 230° |
| 2026-04-23 06:53 | 33.34309 | -118.81316 | 16345 ft | 369 kts | 230° |
| 2026-04-23 06:53 | 33.32509 | -118.83520 | 16723 ft | 371 kts | 230° |
| 2026-04-23 06:54 | 33.30702 | -118.85729 | 17089 ft | 373 kts | 230° |
| 2026-04-23 06:54 | 33.28883 | -118.87948 | 17448 ft | 374 kts | 230° |
| 2026-04-23 06:54 | 33.27057 | -118.90172 | 17820 ft | 376 kts | 230° |
| 2026-04-23 06:54 | 33.25220 | -118.92407 | 18188 ft | 378 kts | 230° |
| 2026-04-23 06:55 | 33.23377 | -118.94650 | 18525 ft | 379 kts | 230° |
| 2026-04-23 06:55 | 33.21522 | -118.96904 | 18804 ft | 381 kts | 230° |
| 2026-04-23 06:55 | 33.19661 | -118.99170 | 19104 ft | 383 kts | 230° |
| 2026-04-23 06:55 | 33.17789 | -119.01443 | 19398 ft | 384 kts | 230° |
| 2026-04-23 06:56 | 33.15909 | -119.03722 | 19697 ft | 386 kts | 230° |
| 2026-04-23 06:56 | 33.14019 | -119.06013 | 19985 ft | 388 kts | 230° |
| 2026-04-23 06:56 | 33.12123 | -119.08311 | 20255 ft | 389 kts | 230° |
| 2026-04-23 06:56 | 33.10218 | -119.10618 | 20509 ft | 392 kts | 230° |
| 2026-04-23 06:57 | 33.08302 | -119.12937 | 20813 ft | 393 kts | 230° |
| 2026-04-23 06:57 | 33.06381 | -119.15261 | 21097 ft | 394 kts | 230° |
| 2026-04-23 06:57 | 33.04450 | -119.17594 | 21377 ft | 396 kts | 230° |
| 2026-04-23 06:57 | 33.02514 | -119.19933 | 21652 ft | 397 kts | 230° |
| 2026-04-23 06:58 | 33.00568 | -119.22282 | 21903 ft | 399 kts | 230° |
| 2026-04-23 06:58 | 32.98612 | -119.24642 | 22173 ft | 401 kts | 230° |
| 2026-04-23 06:58 | 32.96650 | -119.27008 | 22424 ft | 403 kts | 230° |
| 2026-04-23 06:58 | 32.94678 | -119.29384 | 22656 ft | 404 kts | 230° |
| 2026-04-23 06:59 | 32.92697 | -119.31769 | 22926 ft | 406 kts | 230° |
| 2026-04-23 06:59 | 32.90709 | -119.34160 | 23195 ft | 407 kts | 230° |
| 2026-04-23 06:59 | 32.88715 | -119.36558 | 23452 ft | 408 kts | 230° |
| 2026-04-23 06:59 | 32.86711 | -119.38966 | 23691 ft | 410 kts | 230° |
| 2026-04-23 07:00 | 32.84702 | -119.41378 | 23918 ft | 411 kts | 230° |
| 2026-04-23 07:00 | 32.82686 | -119.43794 | 24162 ft | 411 kts | 230° |
| 2026-04-23 07:00 | 32.80671 | -119.46211 | 24401 ft | 411 kts | 230° |
| 2026-04-23 07:00 | 32.78656 | -119.48625 | 24618 ft | 412 kts | 230° |
| 2026-04-23 07:01 | 32.76639 | -119.51041 | 24861 ft | 412 kts | 230° |
| 2026-04-23 07:01 | 32.74623 | -119.53453 | 25087 ft | 412 kts | 230° |
| 2026-04-23 07:01 | 32.72602 | -119.55870 | 25308 ft | 412 kts | 230° |
| 2026-04-23 07:01 | 32.70582 | -119.58284 | 25560 ft | 412 kts | 230° |
| 2026-04-23 07:02 | 32.68558 | -119.60700 | 25783 ft | 413 kts | 230° |
| 2026-04-23 07:02 | 32.66533 | -119.63117 | 26008 ft | 413 kts | 230° |
| 2026-04-23 07:02 | 32.64505 | -119.65536 | 26247 ft | 414 kts | 230° |
| 2026-04-23 07:02 | 32.62475 | -119.67955 | 26486 ft | 414 kts | 230° |
| 2026-04-23 07:03 | 32.60441 | -119.70379 | 26714 ft | 414 kts | 230° |
| 2026-04-23 07:03 | 32.58416 | -119.72790 | 26948 ft | 415 kts | 230° |
| 2026-04-23 07:03 | 32.56381 | -119.75216 | 27211 ft | 416 kts | 230° |
| 2026-04-23 07:03 | 32.54338 | -119.77648 | 27630 ft | 417 kts | 230° |
| 2026-04-23 07:04 | 32.52294 | -119.80078 | 28091 ft | 417 kts | 230° |
| 2026-04-23 07:04 | 32.50244 | -119.82513 | 28527 ft | 417 kts | 230° |
| 2026-04-23 07:04 | 32.48195 | -119.84948 | 28946 ft | 418 kts | 230° |
| 2026-04-23 07:04 | 32.46141 | -119.87387 | 29358 ft | 419 kts | 230° |
| 2026-04-23 07:05 | 32.44077 | -119.89835 | 29732 ft | 420 kts | 230° |
| 2026-04-23 07:05 | 32.42004 | -119.92294 | 29973 ft | 424 kts | 230° |
| 2026-04-23 07:05 | 32.39915 | -119.94769 | 30289 ft | 426 kts | 230° |
| 2026-04-23 07:05 | 32.37819 | -119.97249 | 30607 ft | 426 kts | 230° |
| 2026-04-23 07:06 | 32.35725 | -119.99725 | 30932 ft | 426 kts | 230° |
| 2026-04-23 07:06 | 32.33626 | -120.02205 | 31244 ft | 426 kts | 230° |
| 2026-04-23 07:06 | 32.31528 | -120.04684 | 31529 ft | 427 kts | 230° |
| 2026-04-23 07:06 | 32.29456 | -120.07130 | 31879 ft | 425 kts | 230° |
| 2026-04-23 07:07 | 32.27344 | -120.09619 | 32348 ft | 421 kts | 231° |
| 2026-04-23 07:07 | 32.25282 | -120.12047 | 32842 ft | 417 kts | 231° |
| 2026-04-23 07:07 | 32.23236 | -120.14457 | 33272 ft | 413 kts | 231° |
| 2026-04-23 07:07 | 32.21209 | -120.16843 | 33674 ft | 410 kts | 231° |
| 2026-04-23 07:08 | 32.19195 | -120.19213 | 34097 ft | 407 kts | 231° |
| 2026-04-23 07:08 | 32.17198 | -120.21561 | 34433 ft | 405 kts | 231° |
| 2026-04-23 07:08 | 32.15208 | -120.23899 | 34719 ft | 403 kts | 231° |
| 2026-04-23 07:08 | 32.13227 | -120.26226 | 35015 ft | 401 kts | 231° |
| 2026-04-23 07:09 | 32.11284 | -120.28506 | 35292 ft | 399 kts | 231° |
| 2026-04-23 07:09 | 32.09324 | -120.30805 | 35565 ft | 397 kts | 231° |
| 2026-04-23 07:09 | 32.07371 | -120.33094 | 35830 ft | 395 kts | 232° |
| 2026-04-23 07:09 | 32.05436 | -120.35375 | 36079 ft | 392 kts | 232° |
| 2026-04-23 07:10 | 32.03655 | -120.37773 | 36305 ft | 386 kts | 238° |
| 2026-04-23 07:10 | 32.02162 | -120.40372 | 36500 ft | 381 kts | 243° |
| 2026-04-23 07:10 | 32.00870 | -120.43082 | 36723 ft | 379 kts | 244° |
| 2026-04-23 07:10 | 31.99615 | -120.45804 | 36931 ft | 377 kts | 244° |
| 2026-04-23 07:11 | 31.98365 | -120.48513 | 37145 ft | 376 kts | 244° |
| 2026-04-23 07:11 | 31.97116 | -120.51211 | 37358 ft | 374 kts | 244° |
| 2026-04-23 07:11 | 31.95872 | -120.53893 | 37547 ft | 373 kts | 244° |
| 2026-04-23 07:12 | 31.93390 | -120.59232 | 37905 ft | 370 kts | 244° |
| 2026-04-23 07:12 | 31.92154 | -120.61886 | 38079 ft | 369 kts | 244° |
| 2026-04-23 07:12 | 31.90919 | -120.64536 | 38198 ft | 369 kts | 244° |
| 2026-04-23 07:13 | 31.88433 | -120.69867 | 38201 ft | 374 kts | 244° |
| 2026-04-23 07:13 | 31.85924 | -120.75234 | 38207 ft | 374 kts | 244° |
| 2026-04-23 07:14 | 31.83415 | -120.80594 | 38204 ft | 374 kts | 244° |
| 2026-04-23 07:14 | 31.80903 | -120.85952 | 38202 ft | 374 kts | 244° |
| 2026-04-23 07:15 | 31.78391 | -120.91304 | 38199 ft | 374 kts | 244° |
| 2026-04-23 07:15 | 31.75875 | -120.96656 | 38202 ft | 374 kts | 244° |
| 2026-04-23 07:16 | 31.73375 | -121.01966 | 38207 ft | 374 kts | 244° |
| 2026-04-23 07:16 | 31.70856 | -121.07309 | 38206 ft | 374 kts | 244° |
| 2026-04-23 07:17 | 31.68335 | -121.12651 | 38208 ft | 374 kts | 244° |
| 2026-04-23 07:17 | 31.65810 | -121.17990 | 38209 ft | 374 kts | 244° |
| 2026-04-23 07:18 | 31.63284 | -121.23326 | 38214 ft | 374 kts | 244° |
| 2026-04-23 07:18 | 31.60755 | -121.28660 | 38214 ft | 374 kts | 243° |
| 2026-04-23 07:19 | 31.58217 | -121.33986 | 38213 ft | 374 kts | 242° |
| 2026-04-23 07:19 | 31.55087 | -121.38898 | 38213 ft | 381 kts | 231° |
| 2026-04-23 07:20 | 31.50908 | -121.42836 | 38217 ft | 391 kts | 222° |
| 2026-04-23 07:20 | 31.46314 | -121.46275 | 38218 ft | 393 kts | 220° |
| 2026-04-23 07:21 | 31.42451 | -121.49080 | 38218 ft | 393 kts | 220° |
| 2026-04-23 07:21 | 31.37812 | -121.52466 | 38220 ft | 393 kts | 220° |
| 2026-04-23 07:22 | 31.33193 | -121.55866 | 38223 ft | 392 kts | 220° |
| 2026-04-23 07:22 | 31.28581 | -121.59265 | 38221 ft | 392 kts | 220° |
| 2026-04-23 07:23 | 31.23976 | -121.62658 | 38219 ft | 391 kts | 220° |
| 2026-04-23 07:23 | 31.19373 | -121.66043 | 38224 ft | 391 kts | 220° |
| 2026-04-23 07:24 | 31.14767 | -121.69428 | 38222 ft | 391 kts | 220° |
| 2026-04-23 07:24 | 31.10163 | -121.72806 | 38222 ft | 391 kts | 220° |
| 2026-04-23 07:25 | 31.05558 | -121.76180 | 38227 ft | 391 kts | 220° |
| 2026-04-23 07:25 | 31.00950 | -121.79554 | 38227 ft | 391 kts | 220° |
| 2026-04-23 07:26 | 30.96348 | -121.82920 | 38217 ft | 390 kts | 220° |
| 2026-04-23 07:26 | 30.91753 | -121.86275 | 38228 ft | 390 kts | 220° |
| 2026-04-23 07:27 | 30.87158 | -121.89627 | 38230 ft | 390 kts | 220° |
| 2026-04-23 07:27 | 30.82594 | -121.92952 | 38227 ft | 390 kts | 220° |
| 2026-04-23 07:28 | 30.77999 | -121.96297 | 38225 ft | 390 kts | 220° |
| 2026-04-23 07:28 | 30.73406 | -121.99636 | 38230 ft | 389 kts | 220° |
| 2026-04-23 07:29 | 30.68812 | -122.02972 | 38229 ft | 389 kts | 220° |
| 2026-04-23 07:29 | 30.64215 | -122.06308 | 38227 ft | 390 kts | 220° |
| 2026-04-23 07:30 | 30.59615 | -122.09641 | 38235 ft | 389 kts | 219° |
| 2026-04-23 07:30 | 30.55022 | -122.12964 | 38237 ft | 389 kts | 219° |
| 2026-04-23 07:31 | 30.50428 | -122.16284 | 38230 ft | 389 kts | 219° |
| 2026-04-23 07:31 | 30.45834 | -122.19602 | 38234 ft | 389 kts | 219° |
| 2026-04-23 07:32 | 30.41237 | -122.22918 | 38235 ft | 389 kts | 219° |
| 2026-04-23 07:32 | 30.36641 | -122.26230 | 38236 ft | 389 kts | 219° |
| 2026-04-23 07:33 | 30.32066 | -122.29523 | 38235 ft | 390 kts | 219° |
| 2026-04-23 07:33 | 30.27458 | -122.32835 | 38235 ft | 390 kts | 219° |
| 2026-04-23 07:34 | 30.22847 | -122.36145 | 38232 ft | 390 kts | 219° |
| 2026-04-23 07:34 | 30.18241 | -122.39448 | 38236 ft | 389 kts | 219° |
| 2026-04-23 07:35 | 30.13637 | -122.42747 | 38241 ft | 389 kts | 219° |
| 2026-04-23 07:35 | 30.09034 | -122.46041 | 38239 ft | 389 kts | 219° |
| 2026-04-23 07:36 | 30.04426 | -122.49336 | 38239 ft | 391 kts | 218° |
| 2026-04-23 07:36 | 29.99804 | -122.52638 | 38241 ft | 391 kts | 218° |
| 2026-04-23 07:37 | 29.95205 | -122.55976 | 38243 ft | 390 kts | 219° |
| 2026-04-23 07:37 | 29.90628 | -122.59345 | 38241 ft | 390 kts | 219° |
| 2026-04-23 07:38 | 29.86052 | -122.62707 | 38240 ft | 390 kts | 219° |
| 2026-04-23 07:38 | 29.81470 | -122.66057 | 38241 ft | 390 kts | 219° |
| 2026-04-23 07:39 | 29.76889 | -122.69401 | 38234 ft | 390 kts | 218° |
| 2026-04-23 07:39 | 29.72323 | -122.72731 | 38241 ft | 392 kts | 218° |
| 2026-04-23 07:40 | 29.67689 | -122.76105 | 38243 ft | 392 kts | 218° |
| 2026-04-23 07:40 | 29.63111 | -122.79434 | 38243 ft | 392 kts | 218° |
| 2026-04-23 07:41 | 29.58503 | -122.82782 | 38241 ft | 392 kts | 218° |
| 2026-04-23 07:41 | 29.53895 | -122.86127 | 38241 ft | 392 kts | 218° |
| 2026-04-23 07:42 | 29.49289 | -122.89466 | 38243 ft | 392 kts | 218° |
| 2026-04-23 07:42 | 29.44677 | -122.92807 | 38246 ft | 393 kts | 218° |
| 2026-04-23 07:43 | 29.40052 | -122.96154 | 38247 ft | 393 kts | 218° |
| 2026-04-23 07:43 | 29.35420 | -122.99501 | 38246 ft | 393 kts | 218° |
| 2026-04-23 07:44 | 29.30791 | -123.02842 | 38243 ft | 393 kts | 218° |
| 2026-04-23 07:44 | 29.26158 | -123.06183 | 38246 ft | 393 kts | 218° |
| 2026-04-23 07:45 | 29.21527 | -123.09519 | 38249 ft | 393 kts | 218° |
| 2026-04-23 07:45 | 29.16893 | -123.12853 | 38237 ft | 393 kts | 218° |
| 2026-04-23 07:46 | 29.12251 | -123.16191 | 38261 ft | 395 kts | 217° |
| 2026-04-23 07:46 | 29.07599 | -123.19531 | 38245 ft | 395 kts | 217° |
| 2026-04-23 07:47 | 29.02948 | -123.22866 | 38242 ft | 395 kts | 217° |
| 2026-04-23 07:47 | 28.98296 | -123.26198 | 38244 ft | 394 kts | 217° |
| 2026-04-23 07:48 | 28.93645 | -123.29527 | 38247 ft | 395 kts | 217° |
| 2026-04-23 07:48 | 28.88993 | -123.32853 | 38260 ft | 395 kts | 217° |
| 2026-04-23 07:49 | 28.84369 | -123.36155 | 38246 ft | 395 kts | 217° |
| 2026-04-23 07:49 | 28.79683 | -123.39497 | 38246 ft | 395 kts | 217° |
| 2026-04-23 07:50 | 28.75063 | -123.42790 | 38248 ft | 394 kts | 217° |
| 2026-04-23 07:50 | 28.70407 | -123.46104 | 38248 ft | 395 kts | 217° |
| 2026-04-23 07:51 | 28.65752 | -123.49415 | 38254 ft | 395 kts | 217° |
| 2026-04-23 07:51 | 28.61097 | -123.52722 | 38251 ft | 394 kts | 217° |
| 2026-04-23 07:52 | 28.56438 | -123.56027 | 38220 ft | 394 kts | 217° |
| 2026-04-23 07:52 | 28.51772 | -123.59336 | 38244 ft | 397 kts | 217° |
| 2026-04-23 07:53 | 28.47083 | -123.62657 | 38247 ft | 397 kts | 217° |
| 2026-04-23 07:53 | 28.42392 | -123.65974 | 38250 ft | 397 kts | 217° |
| 2026-04-23 07:54 | 28.37702 | -123.69287 | 38247 ft | 397 kts | 217° |
| 2026-04-23 07:54 | 28.33019 | -123.72592 | 38241 ft | 396 kts | 217° |
| 2026-04-23 07:55 | 28.28340 | -123.75891 | 38251 ft | 396 kts | 217° |
| 2026-04-23 07:55 | 28.23660 | -123.79189 | 38236 ft | 396 kts | 217° |
| 2026-04-23 07:56 | 28.18958 | -123.82499 | 38242 ft | 399 kts | 217° |
| 2026-04-23 07:56 | 28.14242 | -123.85814 | 38243 ft | 399 kts | 217° |
| 2026-04-23 07:57 | 28.09523 | -123.89126 | 38244 ft | 399 kts | 217° |
| 2026-04-23 07:57 | 28.04805 | -123.92434 | 38243 ft | 399 kts | 217° |
| 2026-04-23 07:58 | 28.00090 | -123.95739 | 38250 ft | 399 kts | 217° |
| 2026-04-23 07:58 | 27.95380 | -123.99035 | 38243 ft | 397 kts | 217° |
| 2026-04-23 07:59 | 27.90674 | -124.02326 | 38247 ft | 399 kts | 216° |
| 2026-04-23 07:59 | 27.85947 | -124.05629 | 38247 ft | 400 kts | 216° |
| 2026-04-23 08:00 | 27.81218 | -124.08928 | 38244 ft | 399 kts | 216° |
| 2026-04-23 08:00 | 27.76488 | -124.12225 | 38249 ft | 399 kts | 216° |
| 2026-04-23 08:01 | 27.71762 | -124.15515 | 38248 ft | 399 kts | 216° |
| 2026-04-23 08:01 | 27.67033 | -124.18806 | 38244 ft | 399 kts | 216° |
| 2026-04-23 08:02 | 27.62302 | -124.22094 | 38246 ft | 400 kts | 216° |
| 2026-04-23 08:02 | 27.57560 | -124.25386 | 38243 ft | 400 kts | 216° |
| 2026-04-23 08:03 | 27.52823 | -124.28670 | 38242 ft | 400 kts | 216° |
| 2026-04-23 08:03 | 27.48084 | -124.31953 | 38241 ft | 400 kts | 216° |
| 2026-04-23 08:04 | 27.43380 | -124.35208 | 38243 ft | 400 kts | 216° |
| 2026-04-23 08:04 | 27.38643 | -124.38483 | 38243 ft | 399 kts | 216° |
| 2026-04-23 08:05 | 27.33910 | -124.41752 | 38244 ft | 399 kts | 216° |
| 2026-04-23 08:05 | 27.29165 | -124.45027 | 38242 ft | 401 kts | 216° |
| 2026-04-23 08:06 | 27.24410 | -124.48304 | 38242 ft | 401 kts | 216° |
| 2026-04-23 08:06 | 27.19667 | -124.51569 | 38235 ft | 399 kts | 216° |
| 2026-04-23 08:07 | 27.14935 | -124.54824 | 38242 ft | 399 kts | 216° |
| 2026-04-23 08:07 | 27.10204 | -124.58075 | 38241 ft | 399 kts | 216° |
| 2026-04-23 08:08 | 27.05470 | -124.61325 | 38237 ft | 399 kts | 216° |
| 2026-04-23 08:08 | 27.00737 | -124.64572 | 38234 ft | 399 kts | 216° |
| 2026-04-23 08:09 | 26.95978 | -124.67833 | 38235 ft | 402 kts | 216° |
| 2026-04-23 08:09 | 26.92014 | -124.70546 | 38236 ft | 402 kts | 216° |
| 2026-04-23 08:10 | 26.87240 | -124.73810 | 38247 ft | 402 kts | 216° |
| 2026-04-23 08:10 | 26.80109 | -124.78679 | 38235 ft | 399 kts | 216° |
| 2026-04-23 08:11 | 26.75367 | -124.81914 | 38236 ft | 399 kts | 216° |
| 2026-04-23 08:11 | 26.70623 | -124.85147 | 38226 ft | 399 kts | 215° |
| 2026-04-23 08:12 | 26.65864 | -124.88388 | 38235 ft | 401 kts | 215° |
| 2026-04-23 08:12 | 26.61098 | -124.91630 | 38234 ft | 401 kts | 215° |
| 2026-04-23 08:13 | 26.56328 | -124.94870 | 38234 ft | 401 kts | 215° |
| 2026-04-23 08:13 | 26.51559 | -124.98107 | 38233 ft | 401 kts | 215° |
| 2026-04-23 08:14 | 26.46791 | -125.01340 | 38233 ft | 400 kts | 215° |
| 2026-04-23 08:14 | 26.42032 | -125.04564 | 38229 ft | 400 kts | 215° |
| 2026-04-23 08:15 | 26.37270 | -125.07788 | 38227 ft | 402 kts | 215° |
| 2026-04-23 08:15 | 26.32504 | -125.11012 | 38227 ft | 404 kts | 215° |
| 2026-04-23 08:16 | 26.27701 | -125.14255 | 38229 ft | 404 kts | 215° |
| 2026-04-23 08:16 | 26.22897 | -125.17496 | 38225 ft | 404 kts | 215° |
| 2026-04-23 08:17 | 26.18094 | -125.20734 | 38222 ft | 404 kts | 215° |
| 2026-04-23 08:17 | 26.13289 | -125.23970 | 38224 ft | 404 kts | 215° |
| 2026-04-23 08:18 | 26.08489 | -125.27199 | 38203 ft | 402 kts | 215° |
| 2026-04-23 08:18 | 26.03694 | -125.30423 | 38219 ft | 403 kts | 215° |
| 2026-04-23 08:19 | 25.98887 | -125.33651 | 38220 ft | 404 kts | 214° |
| 2026-04-23 08:19 | 25.94080 | -125.36876 | 38242 ft | 404 kts | 214° |
| 2026-04-23 08:20 | 25.89274 | -125.40097 | 38222 ft | 404 kts | 214° |
| 2026-04-23 08:20 | 25.84465 | -125.43317 | 38219 ft | 404 kts | 214° |
| 2026-04-23 08:21 | 25.79655 | -125.46535 | 38220 ft | 404 kts | 214° |
| 2026-04-23 08:21 | 25.74843 | -125.49751 | 38231 ft | 403 kts | 214° |
| 2026-04-23 08:22 | 25.70038 | -125.52959 | 38221 ft | 403 kts | 214° |
| 2026-04-23 08:22 | 25.65239 | -125.56160 | 38219 ft | 403 kts | 214° |
| 2026-04-23 08:23 | 25.60436 | -125.59361 | 38218 ft | 403 kts | 214° |
| 2026-04-23 08:23 | 25.58036 | -125.60959 | 38222 ft | 403 kts | 214° |